Time;durP1;ratioP1;P1;durP2;ratioP2;P2;SDS_P1;SDS_P2;PMS_P1;PMS_P2;Temp;Humidity;BMP_temperature;BMP_pressure;BME280_temperature;BME280_humidity;BME280_pressure;Samples;Min_cycle;Max_cycle;Signal;HPM_P1;HPM_P2
2022/12/21 04:00:45;;;;;;;;;;;10.10;99.90;;;;;;5975390;23;20007;-68
2022/12/21 04:03:15;;;;;;;;;;;10.10;99.90;;;;;;4945402;28;20310;-71
2022/12/21 04:05:45;;;;;;;;;;;10.10;99.90;;;;;;4944760;29;20416;-71
2022/12/21 04:08:11;;;;;;;;;;;10.10;99.90;;;;;;4943030;29;20368;-70
2022/12/21 04:10:38;;;;;;;;;;;10.10;99.90;;;;;;4958786;28;19981;-70
2022/12/21 04:13:04;;;;;;;;;;;10.10;99.90;;;;;;4958231;28;19933;-71
2022/12/21 04:18:12;;;;;;;;;;;10.00;99.90;;;;;;4947748;28;19989;-71
2022/12/21 04:20:38;;;;;;;;;;;10.00;99.90;;;;;;4945404;29;20022;-72
2022/12/21 04:28:33;;;;;;;;;;;10.00;99.90;;;;;;4942688;29;19922;-71
2022/12/21 04:31:00;;;;;;;;;;;10.00;99.90;;;;;;4946015;29;19978;-72
2022/12/21 04:33:29;;;;;;;;;;;10.00;99.90;;;;;;4936348;29;19974;-71
2022/12/21 04:38:41;;;;;;;;;;;10.00;99.90;;;;;;4944598;29;19931;-71
2022/12/21 04:41:08;;;;;;;;;;;10.00;99.90;;;;;;4956580;28;20022;-72
2022/12/21 04:43:35;;;;;;;;;;;10.10;99.90;;;;;;4946563;29;20377;-71
2022/12/21 04:46:03;;;;;;;;;;;10.00;99.90;;;;;;4949336;28;19926;-73
2022/12/21 04:48:32;;;;;;;;;;;10.10;99.90;;;;;;4960046;28;19926;-71
2022/12/21 04:51:02;;;;;;;;;;;10.10;99.90;;;;;;4934794;29;20017;-72
2022/12/21 04:53:29;;;;;;;;;;;10.10;99.90;;;;;;4957803;28;19935;-71
2022/12/21 04:55:56;;;;;;;;;;;10.10;99.90;;;;;;4940397;29;19950;-71
2022/12/21 04:58:23;;;;;;;;;;;10.10;99.90;;;;;;4940772;29;20401;-72
2022/12/21 05:00:49;;;;;;;;;;;10.10;99.90;;;;;;4955771;28;19931;-71
2022/12/21 05:03:16;;;;;;;;;;;10.10;99.90;;;;;;4946477;29;19926;-71
2022/12/21 05:05:44;;;;;;;;;;;10.00;99.90;;;;;;4945514;29;19933;-71
2022/12/21 05:08:12;;;;;;;;;;;10.00;99.90;;;;;;4956431;28;19962;-72
2022/12/21 05:10:39;;;;;;;;;;;10.00;99.90;;;;;;4958033;28;19966;-71
2022/12/21 05:13:06;;;;;;;;;;;10.00;99.90;;;;;;4959569;28;19927;-71
2022/12/21 05:15:35;;;;;;;;;;;10.00;99.90;;;;;;4935693;29;19931;-70
2022/12/21 05:18:02;;;;;;;;;;;10.00;99.90;;;;;;4958557;28;19989;-71
2022/12/21 05:20:29;;;;;;;;;;;10.00;99.90;;;;;;4959642;28;19982;-71
2022/12/21 05:22:57;;;;;;;;;;;10.00;99.90;;;;;;4959720;28;19933;-71
2022/12/21 05:25:24;;;;;;;;;;;10.10;99.90;;;;;;4947219;29;19926;-68
2022/12/21 05:27:51;;;;;;;;;;;10.10;99.90;;;;;;4959785;28;19973;-68
2022/12/21 05:30:18;;;;;;;;;;;10.10;99.90;;;;;;4957816;28;19927;-68
2022/12/21 05:32:44;;;;;;;;;;;10.00;99.90;;;;;;4958861;28;20461;-69
2022/12/21 05:35:11;;;;;;;;;;;10.00;99.90;;;;;;4943492;28;19926;-68
2022/12/21 05:37:38;;;;;;;;;;;10.00;99.90;;;;;;4939724;29;19982;-69
2022/12/21 05:40:07;;;;;;;;;;;10.00;99.90;;;;;;4954807;28;19934;-69
2022/12/21 05:42:34;;;;;;;;;;;10.10;99.90;;;;;;4940860;29;19994;-69
2022/12/21 05:45:01;;;;;;;;;;;10.10;99.90;;;;;;4940840;29;20313;-75
2022/12/21 05:47:28;;;;;;;;;;;10.10;99.90;;;;;;4942287;29;19931;-72
2022/12/21 05:49:55;;;;;;;;;;;10.10;99.90;;;;;;4940120;29;20457;-67
2022/12/21 05:52:22;;;;;;;;;;;10.00;99.90;;;;;;4957253;28;19926;-71
2022/12/21 05:54:49;;;;;;;;;;;10.00;99.90;;;;;;4957239;28;19930;-70
2022/12/21 05:57:17;;;;;;;;;;;10.00;99.90;;;;;;4940756;29;19966;-70
2022/12/21 05:59:44;;;;;;;;;;;10.00;99.90;;;;;;4960110;28;19927;-71
2022/12/21 06:02:10;;;;;;;;;;;10.00;99.90;;;;;;4934642;29;20383;-71
2022/12/21 06:04:37;;;;;;;;;;;10.00;99.90;;;;;;4927878;29;19974;-71
2022/12/21 06:07:04;;;;;;;;;;;9.90;99.90;;;;;;4939360;29;20013;-70
2022/12/21 06:09:31;;;;;;;;;;;10.00;99.90;;;;;;4958764;28;19934;-71
2022/12/21 06:11:58;;;;;;;;;;;10.10;99.90;;;;;;4942390;29;19931;-70
2022/12/21 06:14:26;;;;;;;;;;;10.10;99.90;;;;;;4948865;29;19932;-73
2022/12/21 06:16:54;;;;;;;;;;;10.10;99.90;;;;;;4955917;28;19927;-70
2022/12/21 06:19:21;;;;;;;;;;;10.10;99.90;;;;;;4952177;28;19985;-70
2022/12/21 06:21:47;;;;;;;;;;;10.00;99.90;;;;;;4939285;29;20032;-71
2022/12/21 06:24:14;;;;;;;;;;;10.00;99.90;;;;;;4942063;29;19978;-70
2022/12/21 06:26:41;;;;;;;;;;;10.00;99.90;;;;;;4946503;29;19927;-70
2022/12/21 06:29:08;;;;;;;;;;;10.00;99.90;;;;;;4956249;28;19930;-70
2022/12/21 06:31:36;;;;;;;;;;;10.00;99.90;;;;;;4939236;29;20373;-70
2022/12/21 06:34:03;;;;;;;;;;;10.00;99.90;;;;;;4946271;29;20022;-70
2022/12/21 06:36:31;;;;;;;;;;;10.00;99.90;;;;;;4935720;29;20070;-72
2022/12/21 06:38:58;;;;;;;;;;;10.00;99.90;;;;;;4947607;29;19981;-71
2022/12/21 06:41:25;;;;;;;;;;;9.90;99.90;;;;;;4959250;28;19927;-71
2022/12/21 06:43:52;;;;;;;;;;;9.90;99.90;;;;;;4944344;29;19927;-67
2022/12/21 06:46:19;;;;;;;;;;;9.90;99.90;;;;;;4953222;28;20355;-71
2022/12/21 06:48:48;;;;;;;;;;;10.00;99.90;;;;;;4965396;28;19985;-69
2022/12/21 06:51:16;;;;;;;;;;;10.00;99.90;;;;;;4947259;29;20378;-70
2022/12/21 06:53:44;;;;;;;;;;;10.00;99.90;;;;;;4948772;29;19931;-72
2022/12/21 06:56:12;;;;;;;;;;;10.00;99.90;;;;;;4944100;29;19931;-71
2022/12/21 06:58:39;;;;;;;;;;;10.00;99.90;;;;;;4946182;29;19931;-70
2022/12/21 07:01:06;;;;;;;;;;;10.00;99.90;;;;;;4959461;28;20369;-70
2022/12/21 07:03:33;;;;;;;;;;;10.10;99.90;;;;;;4944016;29;19927;-70
2022/12/21 07:06:02;;;;;;;;;;;10.10;99.90;;;;;;4955555;28;20608;-70
2022/12/21 07:08:29;;;;;;;;;;;10.20;99.90;;;;;;4934452;29;19935;-70
2022/12/21 07:10:56;;;;;;;;;;;10.20;99.90;;;;;;4938923;29;20366;-69
2022/12/21 07:13:24;;;;;;;;;;;10.30;99.90;;;;;;4942843;29;19934;-70
2022/12/21 07:15:50;;;;;;;;;;;10.30;99.90;;;;;;4959444;28;20402;-70
2022/12/21 07:18:17;;;;;;;;;;;10.30;99.90;;;;;;4942296;29;19931;-70
2022/12/21 07:20:44;;;;;;;;;;;10.30;99.90;;;;;;4964445;28;19959;-67
2022/12/21 07:23:12;;;;;;;;;;;10.30;99.90;;;;;;4942218;29;19938;-69
2022/12/21 07:25:39;;;;;;;;;;;10.30;99.90;;;;;;4959452;28;19927;-69
2022/12/21 07:28:06;;;;;;;;;;;10.30;99.90;;;;;;4937619;29;19934;-70
2022/12/21 07:30:33;;;;;;;;;;;10.30;99.90;;;;;;4942499;29;19927;-70
2022/12/21 07:32:59;;;;;;;;;;;10.40;99.90;;;;;;4942435;29;19983;-69
2022/12/21 07:35:26;;;;;;;;;;;10.40;99.90;;;;;;4960010;28;20362;-69
2022/12/21 07:37:53;;;;;;;;;;;10.40;99.90;;;;;;4954696;28;19927;-69
2022/12/21 07:40:21;;;;;;;;;;;10.40;99.90;;;;;;4961610;28;20295;-69
2022/12/21 07:42:48;;;;;;;;;;;10.40;99.90;;;;;;4937750;29;20337;-70
2022/12/21 07:45:37;;;;;;;;;;;10.40;99.90;;;;;;4942692;29;19927;-68
2022/12/21 07:48:05;;;;;;;;;;;10.40;99.90;;;;;;4965748;28;19930;-68
2022/12/21 07:50:31;;;;;;;;;;;10.40;99.90;;;;;;4934666;29;20361;-69
2022/12/21 07:52:58;;;;;;;;;;;10.40;99.90;;;;;;4959913;28;19933;-68
2022/12/21 07:55:27;;;;;;;;;;;10.30;99.90;;;;;;4959336;28;20374;-69
2022/12/21 07:57:53;;;;;;;;;;;10.30;99.90;;;;;;4956985;28;19934;-69
2022/12/21 08:00:22;;;;;;;;;;;10.20;99.90;;;;;;4953056;28;19978;-68
2022/12/21 08:02:50;;;;;;;;;;;10.20;99.90;;;;;;4940245;29;19930;-67
2022/12/21 08:05:17;;;;;;;;;;;10.20;99.90;;;;;;4968033;28;19933;-77
2022/12/21 08:07:44;;;;;;;;;;;10.10;99.90;;;;;;4950974;28;20043;-77
2022/12/21 08:10:10;;;;;;;;;;;10.10;99.90;;;;;;4943221;28;20287;-72
2022/12/21 08:12:39;;;;;;;;;;;10.10;99.90;;;;;;4959812;28;19926;-76
2022/12/21 08:15:06;;;;;;;;;;;10.00;99.90;;;;;;4937031;28;19926;-70
2022/12/21 08:17:33;;;;;;;;;;;10.00;99.90;;;;;;4934002;29;19930;-70
2022/12/21 08:20:00;;;;;;;;;;;9.90;99.90;;;;;;4953230;28;19974;-70
2022/12/21 08:22:27;;;;;;;;;;;9.80;99.90;;;;;;4932199;29;19985;-70
2022/12/21 08:24:53;;;;;;;;;;;9.80;99.90;;;;;;4943944;29;19938;-69
2022/12/21 08:27:20;;;;;;;;;;;9.70;99.90;;;;;;4950222;28;19974;-69
2022/12/21 08:29:49;;;;;;;;;;;9.70;99.90;;;;;;4939238;29;19935;-69
2022/12/21 08:32:15;;;;;;;;;;;9.70;99.90;;;;;;4944984;29;19993;-70
2022/12/21 08:34:42;;;;;;;;;;;9.60;99.90;;;;;;4954667;28;20001;-69
2022/12/21 08:37:09;;;;;;;;;;;9.70;99.90;;;;;;4935290;28;19931;-69
2022/12/21 08:39:36;;;;;;;;;;;9.60;99.90;;;;;;4934636;29;19939;-69
2022/12/21 08:42:03;;;;;;;;;;;9.60;99.90;;;;;;4941030;29;19927;-70
2022/12/21 08:44:30;;;;;;;;;;;9.60;99.90;;;;;;4934698;29;19958;-69
2022/12/21 08:46:58;;;;;;;;;;;9.50;99.90;;;;;;4957859;28;20270;-69
2022/12/21 08:49:25;;;;;;;;;;;9.50;99.90;;;;;;4932799;29;19927;-70
2022/12/21 08:51:52;;;;;;;;;;;9.40;99.90;;;;;;4937990;29;19949;-69
2022/12/21 08:54:19;;;;;;;;;;;9.30;99.90;;;;;;4934433;29;19927;-69
2022/12/21 08:56:45;;;;;;;;;;;9.20;99.90;;;;;;4928522;29;19963;-68
2022/12/21 08:59:12;;;;;;;;;;;9.10;99.90;;;;;;4945082;28;19938;-69
2022/12/21 09:01:39;;;;;;;;;;;9.10;99.90;;;;;;4932841;29;19934;-66
2022/12/21 09:04:07;;;;;;;;;;;9.10;99.90;;;;;;4932008;29;20552;-69
2022/12/21 09:06:34;;;;;;;;;;;9.10;99.90;;;;;;4933456;29;19934;-70
2022/12/21 09:09:01;;;;;;;;;;;9.20;99.90;;;;;;4954022;28;19927;-70
2022/12/21 09:11:28;;;;;;;;;;;9.20;99.90;;;;;;4929631;29;19935;-70
2022/12/21 09:13:55;;;;;;;;;;;9.20;99.90;;;;;;4960726;28;19974;-70
2022/12/21 09:16:22;;;;;;;;;;;9.30;99.90;;;;;;4929547;29;19926;-69
2022/12/21 09:18:50;;;;;;;;;;;9.30;99.90;;;;;;4933033;29;19931;-70
2022/12/21 09:21:19;;;;;;;;;;;9.30;99.90;;;;;;4933794;29;19927;-67
2022/12/21 09:23:46;;;;;;;;;;;9.30;99.90;;;;;;4935717;29;20450;-70
2022/12/21 09:26:14;;;;;;;;;;;9.30;99.90;;;;;;4958266;28;19933;-70
2022/12/21 09:28:41;;;;;;;;;;;9.50;99.90;;;;;;4960519;28;19946;-76
2022/12/21 09:31:09;;;;;;;;;;;9.60;99.90;;;;;;4959401;28;19933;-74
2022/12/21 09:33:36;;;;;;;;;;;9.90;99.90;;;;;;4934534;29;20030;-75
2022/12/21 09:36:03;;;;;;;;;;;9.90;99.90;;;;;;4965937;28;19930;-73
2022/12/21 09:38:31;;;;;;;;;;;10.00;99.90;;;;;;4937000;29;20282;-70
2022/12/21 09:41:01;;;;;;;;;;;9.80;99.90;;;;;;4942613;28;20416;-70
2022/12/21 09:43:31;;;;;;;;;;;9.80;99.90;;;;;;4935891;29;19930;-70
2022/12/21 09:46:03;;;;;;;;;;;9.80;99.90;;;;;;4938239;29;19927;-70
2022/12/21 09:48:31;;;;;;;;;;;9.70;99.90;;;;;;4932958;29;19970;-69
2022/12/21 09:51:01;;;;;;;;;;;9.60;99.90;;;;;;4931421;29;19942;-70
2022/12/21 09:53:30;;;;;;;;;;;9.50;99.90;;;;;;4932591;29;19926;-70
2022/12/21 09:55:59;;;;;;;;;;;9.60;99.90;;;;;;4955407;28;19977;-71
2022/12/21 09:58:30;;;;;;;;;;;9.70;99.90;;;;;;4932894;29;19967;-69
2022/12/21 10:00:59;;;;;;;;;;;9.70;99.90;;;;;;4932039;29;19997;-68
2022/12/21 10:03:35;;;;;;;;;;;9.80;99.90;;;;;;4958872;28;19974;-68
2022/12/21 10:06:16;;;;;;;;;;;9.80;99.90;;;;;;4954661;28;19934;-70
2022/12/21 10:08:55;;;;;;;;;;;9.90;99.90;;;;;;4933290;29;19978;-69
2022/12/21 10:11:30;;;;;;;;;;;9.90;99.90;;;;;;4948990;28;20283;-68
2022/12/21 10:14:04;;;;;;;;;;;9.90;99.90;;;;;;4934727;29;19935;-70
2022/12/21 10:16:33;;;;;;;;;;;9.90;99.90;;;;;;4934074;29;20337;-69
2022/12/21 10:19:03;;;;;;;;;;;9.70;99.90;;;;;;4941156;29;19934;-69
2022/12/21 10:21:37;;;;;;;;;;;9.60;99.90;;;;;;4930153;29;19934;-68
2022/12/21 10:24:05;;;;;;;;;;;9.60;99.90;;;;;;4961458;28;19934;-68
2022/12/21 10:26:34;;;;;;;;;;;9.60;99.90;;;;;;4958294;28;19946;-67
2022/12/21 10:29:02;;;;;;;;;;;9.70;99.90;;;;;;4957764;28;19930;-69
2022/12/21 10:31:33;;;;;;;;;;;9.70;99.90;;;;;;4943359;28;19981;-69
2022/12/21 10:34:01;;;;;;;;;;;9.70;99.90;;;;;;4930834;29;19926;-69
2022/12/21 10:36:34;;;;;;;;;;;9.70;99.90;;;;;;4932863;29;19933;-68
2022/12/21 10:39:01;;;;;;;;;;;9.70;99.90;;;;;;4954803;28;19987;-67
2022/12/21 10:41:29;;;;;;;;;;;9.60;99.90;;;;;;4960259;28;19976;-68
2022/12/21 10:43:59;;;;;;;;;;;9.60;99.90;;;;;;4954272;28;19931;-67
2022/12/21 10:46:30;;;;;;;;;;;9.60;99.90;;;;;;4951312;28;19926;-67
2022/12/21 10:49:00;;;;;;;;;;;9.60;99.90;;;;;;4948986;28;19927;-67
2022/12/21 10:51:28;;;;;;;;;;;9.50;99.90;;;;;;4944384;29;20018;-69
2022/12/21 10:53:59;;;;;;;;;;;9.50;99.90;;;;;;4963460;28;19930;-68
2022/12/21 10:56:27;;;;;;;;;;;9.50;99.90;;;;;;4936180;29;20365;-68
2022/12/21 10:58:54;;;;;;;;;;;9.40;99.90;;;;;;4939636;29;19935;-68
2022/12/21 11:01:24;;;;;;;;;;;9.30;99.90;;;;;;4954754;28;19930;-69
2022/12/21 11:04:05;;;;;;;;;;;9.40;99.90;;;;;;4943770;28;20394;-68
2022/12/21 11:06:32;;;;;;;;;;;9.50;99.90;;;;;;4937834;29;19927;-74
2022/12/21 11:08:59;;;;;;;;;;;9.60;99.90;;;;;;4951656;28;19927;-69
2022/12/21 11:11:27;;;;;;;;;;;10.00;99.90;;;;;;4964096;28;19927;-70
2022/12/21 11:13:56;;;;;;;;;;;9.90;99.90;;;;;;4954742;28;19947;-70
2022/12/21 11:16:26;;;;;;;;;;;10.40;99.90;;;;;;4929908;29;19927;-69
2022/12/21 11:18:53;;;;;;;;;;;11.70;99.90;;;;;;4959271;28;20337;-70
2022/12/21 11:21:22;;;;;;;;;;;13.50;99.90;;;;;;4954916;28;20329;-70
2022/12/21 11:23:54;;;;;;;;;;;13.50;99.90;;;;;;4959575;28;19931;-69
2022/12/21 11:26:22;;;;;;;;;;;14.70;99.90;;;;;;4937044;29;19926;-70
2022/12/21 11:28:49;;;;;;;;;;;14.90;99.90;;;;;;4952129;28;19926;-71
2022/12/21 11:31:16;;;;;;;;;;;15.10;99.90;;;;;;4938743;29;19938;-69
2022/12/21 11:33:45;;;;;;;;;;;15.20;99.90;;;;;;4955236;28;19931;-69
2022/12/21 11:36:14;;;;;;;;;;;14.20;99.90;;;;;;4944401;29;20022;-70
2022/12/21 11:38:41;;;;;;;;;;;13.30;99.90;;;;;;4958709;28;19935;-69
2022/12/21 11:41:19;;;;;;;;;;;12.90;99.90;;;;;;4948148;29;19927;-70
2022/12/21 11:43:48;;;;;;;;;;;12.60;99.90;;;;;;4962486;28;19927;-70
2022/12/21 11:46:33;;;;;;;;;;;12.70;99.90;;;;;;4960506;28;19959;-68
2022/12/21 11:49:08;;;;;;;;;;;12.70;99.90;;;;;;4940934;29;19927;-69
2022/12/21 11:51:38;;;;;;;;;;;12.10;99.90;;;;;;4944008;29;19931;-69
2022/12/21 11:54:17;;;;;;;;;;;11.70;99.90;;;;;;4960248;28;19927;-69
2022/12/21 11:56:47;;;;;;;;;;;11.50;99.90;;;;;;4940037;29;19934;-70
2022/12/21 11:59:28;;;;;;;;;;;11.60;99.90;;;;;;4948603;28;19933;-70
2022/12/21 12:02:00;;;;;;;;;;;11.90;99.90;;;;;;4944653;29;19926;-70
2022/12/21 12:04:35;;;;;;;;;;;12.30;99.90;;;;;;4963209;28;19931;-71
2022/12/21 12:07:13;;;;;;;;;;;12.80;99.90;;;;;;4958317;28;19981;-69
2022/12/21 12:09:59;;;;;;;;;;;14.10;99.90;;;;;;4960494;28;19927;-67
2022/12/21 12:12:31;;;;;;;;;;;14.60;99.90;;;;;;4959175;28;19926;-68
2022/12/21 12:15:03;;;;;;;;;;;16.20;99.90;;;;;;4946122;29;19926;-68
2022/12/21 12:17:37;;;;;;;;;;;16.60;99.90;;;;;;4937539;29;20423;-69
2022/12/21 12:20:13;;;;;;;;;;;16.40;99.90;;;;;;4947560;29;19937;-68
2022/12/21 12:22:44;;;;;;;;;;;16.50;99.90;;;;;;4939415;29;19926;-68
2022/12/21 12:25:20;;;;;;;;;;;16.20;99.90;;;;;;4948148;29;19934;-68
2022/12/21 12:27:55;;;;;;;;;;;15.20;99.90;;;;;;4958869;28;20342;-68
2022/12/21 12:30:24;;;;;;;;;;;14.50;99.90;;;;;;4937132;29;20302;-69
2022/12/21 12:33:00;;;;;;;;;;;13.60;99.90;;;;;;4939108;29;20393;-72
2022/12/21 12:35:35;;;;;;;;;;;13.40;99.90;;;;;;4932663;29;19927;-66
2022/12/21 12:38:08;;;;;;;;;;;12.70;99.90;;;;;;4934147;29;20354;-66
2022/12/21 12:40:39;;;;;;;;;;;12.10;99.90;;;;;;4941251;29;20357;-66
2022/12/21 12:43:10;;;;;;;;;;;12.10;99.90;;;;;;4937109;29;19975;-72
2022/12/21 12:45:42;;;;;;;;;;;12.40;99.90;;;;;;4961561;28;19930;-68
2022/12/21 12:48:13;;;;;;;;;;;12.70;99.90;;;;;;4956539;28;19927;-67
2022/12/21 12:50:44;;;;;;;;;;;12.80;99.90;;;;;;4938099;29;19931;-66
2022/12/21 12:53:18;;;;;;;;;;;12.70;99.90;;;;;;4946562;29;19927;-67
2022/12/21 12:55:48;;;;;;;;;;;12.70;99.90;;;;;;4935220;29;19938;-67
2022/12/21 12:58:19;;;;;;;;;;;12.30;99.90;;;;;;4950422;28;19934;-66
2022/12/21 13:00:51;;;;;;;;;;;12.10;99.90;;;;;;4935200;29;19927;-69
2022/12/21 13:03:23;;;;;;;;;;;12.10;99.90;;;;;;4939695;29;19926;-67
2022/12/21 13:05:54;;;;;;;;;;;12.10;99.90;;;;;;4937223;29;19934;-68
2022/12/21 13:08:27;;;;;;;;;;;11.90;99.90;;;;;;4936256;29;19934;-67
2022/12/21 13:10:55;;;;;;;;;;;11.90;99.90;;;;;;4940356;29;19931;-69
2022/12/21 13:13:24;;;;;;;;;;;11.70;99.90;;;;;;4945530;28;20379;-67
2022/12/21 13:15:54;;;;;;;;;;;11.60;99.90;;;;;;4946046;28;19987;-68
2022/12/21 13:18:24;;;;;;;;;;;11.50;99.90;;;;;;4943668;29;19926;-66
2022/12/21 13:20:54;;;;;;;;;;;11.50;99.90;;;;;;4952994;28;19938;-69
2022/12/21 13:23:26;;;;;;;;;;;12.00;99.90;;;;;;4933868;29;19926;-67
2022/12/21 13:25:55;;;;;;;;;;;12.40;99.90;;;;;;4960351;28;20395;-69
2022/12/21 13:28:23;;;;;;;;;;;12.40;99.90;;;;;;4942481;29;19926;-67
2022/12/21 13:30:51;;;;;;;;;;;12.40;99.90;;;;;;4954297;28;19930;-68
2022/12/21 13:33:18;;;;;;;;;;;12.20;99.90;;;;;;4940577;29;19930;-67
2022/12/21 13:35:49;;;;;;;;;;;12.10;99.90;;;;;;4940860;29;20006;-71
2022/12/21 13:38:19;;;;;;;;;;;12.30;99.90;;;;;;4954875;28;19931;-70
2022/12/21 13:40:47;;;;;;;;;;;12.70;99.90;;;;;;4954653;28;19954;-67
2022/12/21 13:43:16;;;;;;;;;;;13.30;99.90;;;;;;4946060;29;19927;-67
2022/12/21 13:45:45;;;;;;;;;;;13.30;99.90;;;;;;4958242;28;20318;-67
2022/12/21 13:48:14;;;;;;;;;;;13.50;99.90;;;;;;4942945;28;19931;-65
2022/12/21 13:50:48;;;;;;;;;;;13.90;99.90;;;;;;4939208;29;19974;-72
2022/12/21 13:53:18;;;;;;;;;;;13.40;99.90;;;;;;4938981;29;19938;-69
2022/12/21 13:55:52;;;;;;;;;;;12.90;99.90;;;;;;4940362;28;20377;-70
2022/12/21 13:58:26;;;;;;;;;;;13.40;99.90;;;;;;4943336;29;19926;-66
2022/12/21 14:00:56;;;;;;;;;;;14.00;99.90;;;;;;4949685;28;19935;-68
2022/12/21 14:03:25;;;;;;;;;;;14.10;99.90;;;;;;4929008;29;20339;-68
2022/12/21 14:05:58;;;;;;;;;;;13.80;99.90;;;;;;4933750;29;20345;-68
2022/12/21 14:08:40;;;;;;;;;;;13.40;99.90;;;;;;4945735;28;20373;-67
2022/12/21 14:11:18;;;;;;;;;;;13.00;99.90;;;;;;4930183;29;20477;-68
2022/12/21 14:13:53;;;;;;;;;;;12.60;99.90;;;;;;4941253;28;20038;-69
2022/12/21 14:16:21;;;;;;;;;;;12.30;99.90;;;;;;4941220;28;19938;-69
2022/12/21 14:18:53;;;;;;;;;;;12.10;99.90;;;;;;4952844;28;19933;-66
2022/12/21 14:21:22;;;;;;;;;;;12.10;99.90;;;;;;4946752;28;19934;-67
2022/12/21 14:23:51;;;;;;;;;;;12.10;99.90;;;;;;4939156;28;20042;-69
2022/12/21 14:26:42;;;;;;;;;;;12.40;99.90;;;;;;4936417;29;19927;-68
2022/12/21 14:29:12;;;;;;;;;;;12.20;99.90;;;;;;4961952;28;19930;-68
2022/12/21 14:31:47;;;;;;;;;;;12.00;99.90;;;;;;4939616;29;19927;-68
2022/12/21 14:34:14;;;;;;;;;;;11.80;99.90;;;;;;4936969;29;19965;-67
2022/12/21 14:37:04;;;;;;;;;;;11.90;99.90;;;;;;4958258;28;19931;-69
2022/12/21 14:39:35;;;;;;;;;;;11.70;99.90;;;;;;4942393;29;19961;-73
2022/12/21 14:42:20;;;;;;;;;;;11.30;99.90;;;;;;4936675;29;19978;-70
2022/12/21 14:45:06;;;;;;;;;;;11.20;99.90;;;;;;4942621;29;19930;-68
2022/12/21 14:47:34;;;;;;;;;;;11.00;99.90;;;;;;4935735;29;19927;-67
2022/12/21 14:50:02;;;;;;;;;;;10.90;99.90;;;;;;4939175;29;19934;-67
2022/12/21 14:52:31;;;;;;;;;;;10.80;99.90;;;;;;4938527;29;19927;-67
2022/12/21 14:55:05;;;;;;;;;;;10.70;99.90;;;;;;4941700;29;19927;-68
2022/12/21 14:57:36;;;;;;;;;;;10.50;99.90;;;;;;4959042;28;19941;-74
2022/12/21 15:00:18;;;;;;;;;;;10.50;99.90;;;;;;4935642;29;19926;-71
2022/12/21 15:02:49;;;;;;;;;;;10.40;99.90;;;;;;4959498;28;19934;-69
2022/12/21 15:05:25;;;;;;;;;;;10.30;99.90;;;;;;4953197;28;19934;-69
2022/12/21 15:07:54;;;;;;;;;;;10.20;99.90;;;;;;4948537;28;19981;-68
2022/12/21 15:10:23;;;;;;;;;;;10.20;99.90;;;;;;4951188;28;19926;-69
2022/12/21 15:12:51;;;;;;;;;;;10.10;99.90;;;;;;4944826;29;20378;-69
2022/12/21 15:15:23;;;;;;;;;;;10.00;99.90;;;;;;4951728;28;19977;-68
2022/12/21 15:17:52;;;;;;;;;;;9.90;99.90;;;;;;4941780;29;19937;-68
2022/12/21 15:20:37;;;;;;;;;;;9.90;99.90;;;;;;4965165;28;19926;-68
2022/12/21 15:23:08;;;;;;;;;;;9.90;99.90;;;;;;4943270;29;19927;-69
2022/12/21 15:25:36;;;;;;;;;;;9.80;99.90;;;;;;4964275;28;19927;-67
2022/12/21 15:28:04;;;;;;;;;;;9.70;99.90;;;;;;4943881;29;19927;-69
2022/12/21 15:30:33;;;;;;;;;;;9.60;99.90;;;;;;4939843;29;19950;-69
2022/12/21 15:33:02;;;;;;;;;;;9.60;99.90;;;;;;4957678;28;19935;-69
2022/12/21 15:35:33;;;;;;;;;;;9.50;99.90;;;;;;4947599;29;19930;-69
2022/12/21 15:38:03;;;;;;;;;;;9.50;99.90;;;;;;4962045;28;19934;-68
2022/12/21 15:40:32;;;;;;;;;;;9.30;99.90;;;;;;4962708;28;19926;-69
2022/12/21 15:43:03;;;;;;;;;;;9.30;99.90;;;;;;4962608;28;19945;-69
2022/12/21 15:45:38;;;;;;;;;;;9.30;99.90;;;;;;4948802;29;19933;-69
2022/12/21 15:48:12;;;;;;;;;;;9.30;99.90;;;;;;4938163;29;19927;-68
2022/12/21 15:50:42;;;;;;;;;;;9.20;99.90;;;;;;4947115;29;19934;-69
2022/12/21 15:53:16;;;;;;;;;;;9.10;99.90;;;;;;4953956;28;19953;-68
2022/12/21 15:55:43;;;;;;;;;;;9.10;99.90;;;;;;4943987;29;19927;-68
2022/12/21 15:58:13;;;;;;;;;;;9.20;99.90;;;;;;4949811;29;19986;-69
2022/12/21 16:00:44;;;;;;;;;;;9.20;99.90;;;;;;4942673;29;19926;-69
2022/12/21 16:03:14;;;;;;;;;;;9.20;99.90;;;;;;4946797;29;19927;-69
2022/12/21 16:05:42;;;;;;;;;;;9.20;99.90;;;;;;4938631;29;19974;-69
2022/12/21 16:08:13;;;;;;;;;;;9.20;99.90;;;;;;4964966;28;20390;-69
2022/12/21 16:10:42;;;;;;;;;;;9.30;99.90;;;;;;4958330;28;20021;-69
2022/12/21 16:13:10;;;;;;;;;;;9.20;99.90;;;;;;4938250;29;20398;-69
2022/12/21 16:15:39;;;;;;;;;;;9.20;99.90;;;;;;4959496;28;19939;-70
2022/12/21 16:18:14;;;;;;;;;;;9.20;99.90;;;;;;4945164;29;19958;-68
2022/12/21 16:20:42;;;;;;;;;;;9.10;99.90;;;;;;4954293;28;19926;-70
2022/12/21 16:23:12;;;;;;;;;;;9.10;99.90;;;;;;4942341;29;19930;-69
2022/12/21 16:25:40;;;;;;;;;;;9.20;99.90;;;;;;4946704;29;19930;-69
2022/12/21 16:28:14;;;;;;;;;;;9.20;99.90;;;;;;4948391;28;19950;-70
2022/12/21 16:30:41;;;;;;;;;;;9.20;99.90;;;;;;4958953;28;19926;-68
2022/12/21 16:33:11;;;;;;;;;;;9.30;99.90;;;;;;4961187;28;19934;-69
2022/12/21 16:35:40;;;;;;;;;;;9.20;99.90;;;;;;4964469;28;19927;-69
2022/12/21 16:38:08;;;;;;;;;;;9.20;99.90;;;;;;4949950;29;19934;-69
2022/12/21 16:40:35;;;;;;;;;;;9.20;99.90;;;;;;4956392;28;19927;-70
2022/12/21 16:43:03;;;;;;;;;;;9.30;99.90;;;;;;4943568;29;19927;-69
2022/12/21 16:45:49;;;;;;;;;;;9.30;99.90;;;;;;4962533;28;19930;-69
2022/12/21 16:48:20;;;;;;;;;;;9.40;99.90;;;;;;4956546;28;19989;-68
2022/12/21 16:50:49;;;;;;;;;;;9.50;99.90;;;;;;4945971;29;19961;-70
2022/12/21 16:53:31;;;;;;;;;;;9.50;99.90;;;;;;4956848;28;19931;-68
2022/12/21 16:56:13;;;;;;;;;;;9.50;99.90;;;;;;4957955;28;19934;-69
2022/12/21 16:58:39;;;;;;;;;;;9.50;99.90;;;;;;4956193;28;19976;-69
2022/12/21 17:01:10;;;;;;;;;;;9.50;99.90;;;;;;4957123;28;19990;-70
2022/12/21 17:03:37;;;;;;;;;;;9.50;99.90;;;;;;4942601;29;19986;-70
2022/12/21 17:06:05;;;;;;;;;;;9.50;99.90;;;;;;4964738;28;19934;-70
2022/12/21 17:08:35;;;;;;;;;;;9.50;99.90;;;;;;4942294;29;19930;-70
2022/12/21 17:11:02;;;;;;;;;;;9.60;99.90;;;;;;4957967;28;20306;-70
2022/12/21 17:13:29;;;;;;;;;;;9.60;99.90;;;;;;4961219;28;19933;-69
2022/12/21 17:16:00;;;;;;;;;;;9.60;99.90;;;;;;4965945;28;19926;-70
2022/12/21 17:18:43;;;;;;;;;;;9.60;99.90;;;;;;4942079;29;19939;-69
2022/12/21 17:21:25;;;;;;;;;;;9.60;99.90;;;;;;4952159;28;19927;-69
2022/12/21 17:23:55;;;;;;;;;;;9.60;99.90;;;;;;4962306;28;19927;-69
2022/12/21 17:26:33;;;;;;;;;;;9.60;99.90;;;;;;4943862;28;19927;-69
2022/12/21 17:29:00;;;;;;;;;;;9.60;99.90;;;;;;4941752;29;20405;-70
2022/12/21 17:31:27;;;;;;;;;;;9.60;99.90;;;;;;4940936;28;19931;-69
2022/12/21 17:33:54;;;;;;;;;;;9.70;99.90;;;;;;4940181;29;19930;-70
2022/12/21 17:36:21;;;;;;;;;;;9.70;99.90;;;;;;4956688;28;19926;-70
2022/12/21 17:38:48;;;;;;;;;;;9.60;99.90;;;;;;4953703;28;19935;-69
2022/12/21 17:41:17;;;;;;;;;;;9.70;99.90;;;;;;4957979;28;19927;-70
2022/12/21 17:43:44;;;;;;;;;;;9.60;99.90;;;;;;4951626;28;19931;-70
2022/12/21 17:46:13;;;;;;;;;;;9.70;99.90;;;;;;4942613;29;19930;-74
2022/12/21 17:48:40;;;;;;;;;;;9.70;99.90;;;;;;4959870;28;20380;-70
2022/12/21 17:51:09;;;;;;;;;;;9.60;99.90;;;;;;4950445;28;19934;-71
2022/12/21 17:53:36;;;;;;;;;;;9.60;99.90;;;;;;4960425;28;20258;-70
2022/12/21 17:56:03;;;;;;;;;;;9.60;99.90;;;;;;4954506;28;20009;-70
2022/12/21 17:58:31;;;;;;;;;;;9.60;99.90;;;;;;4948823;28;19927;-70
2022/12/21 18:01:00;;;;;;;;;;;9.60;99.90;;;;;;4946420;28;20199;-69
2022/12/21 18:03:30;;;;;;;;;;;9.60;99.90;;;;;;4956385;28;19930;-69
2022/12/21 18:05:56;;;;;;;;;;;9.60;99.90;;;;;;4947314;28;19962;-70
2022/12/21 18:08:23;;;;;;;;;;;9.60;99.90;;;;;;4955885;28;19973;-70
2022/12/21 18:10:50;;;;;;;;;;;9.60;99.90;;;;;;4962546;28;19934;-70
2022/12/21 18:13:17;;;;;;;;;;;9.60;99.90;;;;;;4960404;28;19931;-70
2022/12/21 18:15:53;;;;;;;;;;;9.60;99.90;;;;;;4960823;28;19927;-70
2022/12/21 18:18:21;;;;;;;;;;;9.60;99.90;;;;;;4956806;28;19926;-67
2022/12/21 18:20:49;;;;;;;;;;;9.60;99.90;;;;;;4947416;29;19930;-73
2022/12/21 18:23:16;;;;;;;;;;;9.70;99.90;;;;;;4953155;28;19977;-70
2022/12/21 18:25:43;;;;;;;;;;;9.70;99.90;;;;;;4945000;29;19973;-70
2022/12/21 18:28:11;;;;;;;;;;;9.70;99.90;;;;;;4947138;29;19926;-71
2022/12/21 18:30:39;;;;;;;;;;;9.70;99.90;;;;;;4941289;29;19931;-71
2022/12/21 18:33:10;;;;;;;;;;;9.70;99.90;;;;;;4957447;28;20415;-72
2022/12/21 18:35:37;;;;;;;;;;;9.50;99.90;;;;;;4938035;29;19930;-76
2022/12/21 18:38:04;;;;;;;;;;;9.50;99.90;;;;;;4951008;28;19934;-68
2022/12/21 18:40:31;;;;;;;;;;;9.40;99.90;;;;;;4942692;29;19927;-69
2022/12/21 18:43:01;;;;;;;;;;;9.40;99.90;;;;;;4959803;28;20394;-70
2022/12/21 18:45:28;;;;;;;;;;;9.40;99.90;;;;;;4964053;28;20318;-70
2022/12/21 18:47:55;;;;;;;;;;;9.40;99.90;;;;;;4956346;28;20295;-70